CheckWX is a tool to help pilots better visualize weather data.  It is not intended as a substitute for an official pre-flight weather briefing.

02:42:19 UTC

KPMV METAR
Plattsmouth Municipal Airport
Plattsmouth, Nebraska, USA
Current

27 mins ago

KPMV 060215Z AUTO 33010G16KT 10SM CLR 06/02 A3002 RMK AO2 T00550024
Observed
Dec-6 @ 02:15 UTC
Wind
  • 330° at 10 KTS
  • Gusting to 16 KTS
Visibility
10 SM
Flight Rules
VFR
Cloud Levels
  • Clear skies
Temperature
C / 43°F
Dewpoint
C / 36°F
Humidity
76%
Altimeter
30.02" Hg
Pressure
1016.62 hPa
Previous

47 mins ago

KPMV 060155Z AUTO 33010KT 10SM CLR 07/03 A3001 RMK AO2 T00650029
Observed
Dec-6 @ 01:55 UTC
Wind
  • 330° at 10 KTS
Visibility
10 SM
Flight Rules
VFR
Cloud Levels
  • Clear skies
Temperature
C / 45°F
Dewpoint
C / 37°F
Humidity
76%
Altimeter
30.01" Hg
Pressure
1016.22 hPa
Previous

1 hour ago

KPMV 060135Z AUTO 33007KT 10SM CLR 07/04 A3000 RMK AO2 T00680036
Observed
Dec-6 @ 01:35 UTC
Wind
  • 330° at 7 KTS
Visibility
10 SM
Flight Rules
VFR
Cloud Levels
  • Clear skies
Temperature
C / 45°F
Dewpoint
C / 39°F
Humidity
81%
Altimeter
30" Hg
Pressure
1015.92 hPa